Time;durP1;ratioP1;P1;durP2;ratioP2;P2;SDS_P1;SDS_P2;PMS_P1;PMS_P2;Temp;Humidity;BMP_temperature;BMP_pressure;BME280_temperature;BME280_humidity;BME280_pressure;Samples;Min_cycle;Max_cycle;Signal;HPM_P1;HPM_P2
2022/11/04 00:01:32;;;;;;;18.50;5.88;;;;;;;13.66;100.00;97062.63;6122416;23;20025;-91
2022/11/04 00:03:58;;;;;;;19.42;6.20;;;;;;;11.93;100.00;97075.56;6148967;23;20013;-91
2022/11/04 00:06:24;;;;;;;18.92;5.88;;;;;;;11.67;100.00;97081.88;6146520;23;20510;-91
2022/11/04 00:08:50;;;;;;;23.33;6.03;;;;;;;11.36;100.00;97087.47;6120779;23;20013;-90
2022/11/04 00:14:00;;;;;;;19.05;5.88;;;;;;;12.91;100.00;97082.72;6146058;23;20462;-91
2022/11/04 00:19:10;;;;;;;21.60;5.65;;;;;;;12.68;100.00;97093.34;6144505;23;20351;-90
2022/11/04 00:29:47;;;;;;;21.63;4.82;;;;;;;13.73;100.00;97117.38;6145339;23;20024;-90
2022/11/04 00:34:56;;;;;;;13.23;4.55;;;;;;;14.31;100.00;97118.91;6144486;23;20019;-91
2022/11/04 00:37:22;;;;;;;18.15;4.18;;;;;;;14.30;100.00;97120.66;6144478;23;20100;-91
2022/11/04 00:39:47;;;;;;;17.42;4.20;;;;;;;14.31;100.00;97122.34;6146439;23;20005;-90
2022/11/04 00:42:13;;;;;;;16.30;4.07;;;;;;;14.26;100.00;97126.97;6148403;23;20009;-91
2022/11/04 00:44:38;;;;;;;17.40;4.18;;;;;;;14.39;100.00;97127.22;6121395;23;20487;-91
2022/11/04 00:47:04;;;;;;;15.27;4.32;;;;;;;13.88;100.00;97137.59;6147757;23;20023;-91
2022/11/04 00:49:30;;;;;;;13.80;3.85;;;;;;;13.34;100.00;97140.09;6133890;23;20048;-91
2022/11/04 00:51:55;;;;;;;15.90;4.18;;;;;;;13.88;100.00;97139.38;6146453;23;20014;-91
2022/11/04 00:54:20;;;;;;;12.05;3.75;;;;;;;13.93;100.00;97133.00;6147762;23;20006;-91
2022/11/04 00:56:47;;;;;;;23.92;4.40;;;;;;;14.19;100.00;97143.94;6144344;23;20018;-90
2022/11/04 00:59:13;;;;;;;12.90;3.42;;;;;;;13.87;100.00;97158.63;6144830;23;20020;-91
2022/11/04 01:01:38;;;;;;;17.30;4.10;;;;;;;14.39;100.00;97156.09;6144386;23;20009;-91
2022/11/04 01:04:04;;;;;;;14.13;3.85;;;;;;;13.77;100.00;97166.09;6143881;23;20054;-91
2022/11/04 01:06:29;;;;;;;16.15;4.20;;;;;;;12.95;100.00;97181.09;6143271;23;20017;-90
2022/11/04 01:09:00;;;;;;;14.25;3.50;;;;;;;14.22;100.00;97175.25;6144548;23;20064;-91
2022/11/04 01:11:28;;;;;;;15.73;3.47;;;;;;;14.79;100.00;97182.09;6147218;23;20009;-91
2022/11/04 01:13:54;;;;;;;13.30;3.20;;;;;;;14.79;100.00;97176.84;6145618;23;20017;-90
2022/11/04 01:16:20;;;;;;;11.70;3.97;;;;;;;13.74;100.00;97189.81;6146897;23;20100;-90
2022/11/04 01:18:46;;;;;;;13.35;3.65;;;;;;;13.63;100.00;97196.38;6147030;23;20006;-90
2022/11/04 01:21:13;;;;;;;15.88;3.92;;;;;;;13.66;100.00;97192.78;6147616;23;20014;-91
2022/11/04 01:23:39;;;;;;;14.02;3.85;;;;;;;14.29;100.00;97184.53;6146732;23;20048;-91
2022/11/04 01:26:06;;;;;;;13.88;3.70;;;;;;;14.51;100.00;97201.81;6146857;23;20009;-91
2022/11/04 01:28:32;;;;;;;15.35;3.85;;;;;;;13.09;100.00;97216.28;6146281;23;20016;-90
2022/11/04 01:30:57;;;;;;;14.73;3.30;;;;;;;13.27;100.00;97220.69;6145624;23;20009;-91
2022/11/04 01:33:23;;;;;;;14.07;3.55;;;;;;;13.10;100.00;97218.81;6145429;23;20036;-91
2022/11/04 01:35:50;;;;;;;14.63;3.72;;;;;;;13.44;100.00;97214.75;6145483;23;20016;-91
2022/11/04 01:38:16;;;;;;;15.98;3.40;;;;;;;13.87;100.00;97211.03;6144752;23;20026;-91
2022/11/04 01:40:41;;;;;;;12.70;3.60;;;;;;;13.63;100.00;97222.59;6144813;23;20538;-91
2022/11/04 01:43:18;;;;;;;12.00;3.55;;;;;;;13.58;100.00;97226.34;6145181;23;20017;-91
2022/11/04 01:45:48;;;;;;;13.57;3.33;;;;;;;13.82;100.00;97237.47;6144837;23;20005;-91
2022/11/04 01:48:19;;;;;;;17.20;3.47;;;;;;;13.55;100.00;97240.41;6137567;23;20036;-90
2022/11/04 01:50:45;;;;;;;15.18;3.70;;;;;;;13.88;100.00;97247.66;6148181;23;20350;-91
2022/11/04 01:53:14;;;;;;;11.77;3.20;;;;;;;14.00;100.00;97262.81;6146955;23;20008;-90
2022/11/04 01:55:46;;;;;;;13.43;2.88;;;;;;;13.93;100.00;97260.53;6172445;23;20044;-91
2022/11/04 01:58:16;;;;;;;12.10;3.13;;;;;;;14.20;100.00;97255.78;6146805;23;20024;-91
2022/11/04 02:00:42;;;;;;;15.68;3.22;;;;;;;13.62;100.00;97264.56;6147199;23;20047;-91
2022/11/04 02:03:17;;;;;;;13.07;2.90;;;;;;;14.29;100.00;97255.34;6173279;23;20012;-90
2022/11/04 02:05:43;;;;;;;17.00;3.50;;;;;;;13.23;100.00;97268.03;6147942;23;20092;-89
2022/11/04 02:08:11;;;;;;;16.92;3.05;;;;;;;12.08;100.00;97275.34;6174614;23;20063;-89
2022/11/04 02:10:40;;;;;;;12.27;2.97;;;;;;;12.49;100.00;97269.34;6149129;23;20080;-89
2022/11/04 02:13:05;;;;;;;14.73;3.15;;;;;;;13.75;100.00;97265.72;6150339;23;20013;-89
2022/11/04 02:15:38;;;;;;;16.27;2.80;;;;;;;13.96;100.00;97261.25;6177076;23;20013;-90
2022/11/04 02:18:25;;;;;;;11.65;2.70;;;;;;;13.22;100.00;97266.31;6150418;23;20454;-89
2022/11/04 02:21:18;;;;;;;12.02;2.78;;;;;;;14.15;100.00;97266.50;6150474;23;20017;-89
2022/11/04 02:24:23;;;;;;;15.23;2.90;;;;;;;13.74;100.00;97278.91;6149739;23;20005;-90
2022/11/04 02:27:00;;;;;;;13.27;2.70;;;;;;;13.65;100.00;97273.16;6112552;23;20017;-89
2022/11/04 02:29:47;;;;;;;9.88;2.70;;;;;;;15.80;100.00;97254.72;6176503;23;20017;-89
2022/11/04 02:32:37;;;;;;;12.70;2.70;;;;;;;15.18;100.00;97264.97;6176867;23;20020;-90
2022/11/04 02:35:05;;;;;;;11.57;2.50;;;;;;;13.60;100.00;97274.28;6147348;23;20442;-89
2022/11/04 02:37:46;;;;;;;14.52;3.10;;;;;;;14.02;100.00;97272.38;6150272;23;20439;-89
2022/11/04 02:40:25;;;;;;;13.05;2.38;;;;;;;13.31;100.00;97284.25;6148500;23;20021;-90
2022/11/04 02:43:08;;;;;;;10.57;2.40;;;;;;;13.32;100.00;97285.97;6176782;23;20009;-89
2022/11/04 02:45:33;;;;;;;;;;;;;;;14.15;100.00;97276.97;6148761;23;20032;-89
2022/11/04 02:48:14;;;;;;;11.90;2.60;;;;;;;14.15;100.00;97286.59;6149278;23;20254;-89
2022/11/04 02:50:48;;;;;;;13.27;2.70;;;;;;;12.92;100.00;97296.34;6148867;23;20243;-89
2022/11/04 02:53:25;;;;;;;9.80;2.10;;;;;;;13.51;100.00;97296.47;6148924;23;20016;-89
2022/11/04 02:55:55;;;;;;;11.93;2.40;;;;;;;12.74;100.00;97303.19;6148991;23;20039;-89
2022/11/04 02:58:26;;;;;;;14.57;2.10;;;;;;;13.24;100.00;97315.06;6147742;23;20009;-89
2022/11/04 03:04:04;;;;;;;9.52;1.95;;;;;;;12.73;100.00;97311.13;6064640;23;20033;-90
2022/11/04 03:06:50;;;;;;;13.82;2.30;;;;;;;13.12;100.00;97321.69;6031035;23;20030;-90
2022/11/04 03:09:17;;;;;;;11.18;2.15;;;;;;;13.00;100.00;97324.84;6032517;23;20539;-90
2022/11/04 03:11:55;;;;;;;9.73;2.25;;;;;;;12.52;100.00;97325.91;6028852;23;20014;-90
2022/11/04 03:14:44;;;;;;;8.82;1.90;;;;;;;12.66;100.00;97326.19;6058523;23;20075;-91
2022/11/04 03:17:35;;;;;;;12.00;1.95;;;;;;;12.77;100.00;97331.84;6058869;23;20019;-91
2022/11/04 03:20:08;;;;;;;9.65;1.98;;;;;;;12.75;100.00;97330.22;6033940;23;20034;-90
2022/11/04 03:22:35;;;;;;;14.20;2.20;;;;;;;13.58;100.00;97331.94;6033624;23;20019;-92
2022/11/04 03:25:07;;;;;;;10.10;2.00;;;;;;;13.12;100.00;97341.78;6059161;23;20230;-91
2022/11/04 03:28:15;;;;;;;9.45;1.75;;;;;;;12.94;100.00;97352.09;6033094;23;20026;-92
2022/11/04 03:30:46;;;;;;;8.57;1.77;;;;;;;12.58;100.00;97354.44;6058446;23;20006;-91
2022/11/04 03:33:23;;;;;;;10.13;1.98;;;;;;;13.15;100.00;97363.44;6057797;23;20007;-91
2022/11/04 03:35:48;;;;;;;11.80;1.85;;;;;;;13.24;100.00;97354.34;6030071;23;20076;-91
2022/11/04 03:38:15;;;;;;;8.90;1.52;;;;;;;13.12;100.00;97362.72;6057680;23;20101;-92
2022/11/04 03:40:44;;;;;;;7.70;1.60;;;;;;;13.18;100.00;97362.47;6031332;23;20512;-92
2022/11/04 03:43:26;;;;;;;8.70;1.58;;;;;;;13.28;100.00;97365.56;6030343;23;20017;-91
2022/11/04 03:45:54;;;;;;;7.53;1.75;;;;;;;14.00;100.00;97377.28;6030666;23;20707;-92
2022/11/04 03:48:45;;;;;;;9.05;1.50;;;;;;;13.35;100.00;97387.06;6055702;23;19999;-91
2022/11/04 03:51:34;;;;;;;9.10;1.60;;;;;;;13.13;100.00;97390.59;6057616;23;20710;-91
2022/11/04 03:54:00;;;;;;;9.60;1.52;;;;;;;13.18;100.00;97390.41;6057526;23;20435;-90
2022/11/04 03:56:54;;;;;;;7.95;1.83;;;;;;;13.33;100.00;97397.59;6034035;23;20034;-91
2022/11/04 03:59:48;;;;;;;10.60;1.58;;;;;;;13.34;100.00;97404.56;6034106;23;20015;-90
2022/11/04 04:02:19;;;;;;;6.63;1.27;;;;;;;13.70;100.00;97392.63;6003190;23;20360;-92
2022/11/04 04:05:20;;;;;;;7.22;1.60;;;;;;;13.40;100.00;97406.09;6061566;23;20348;-90
2022/11/04 04:08:24;;;;;;;8.57;2.17;;;;;;;13.49;100.00;97396.06;6062357;23;20022;-92
2022/11/04 04:11:05;;;;;;;9.07;1.65;;;;;;;15.68;100.00;97392.00;6077711;23;20041;-91
2022/11/04 04:14:09;;;;;;;10.80;1.48;;;;;;;14.71;100.00;97407.28;6089206;23;20010;-91
2022/11/04 04:16:49;;;;;;;8.55;1.70;;;;;;;13.29;100.00;97416.97;6062900;23;20102;-91
2022/11/04 04:19:23;;;;;;;8.75;1.80;;;;;;;13.43;100.00;97429.53;6063893;23;20334;-92
2022/11/04 04:22:15;;;;;;;7.05;1.50;;;;;;;12.78;100.00;97432.13;6089230;23;20058;-92
2022/11/04 04:27:38;;;;;;;7.30;1.50;;;;;;;12.79;100.00;97442.53;6089473;23;20021;-91
2022/11/04 04:30:08;;;;;;;9.27;1.77;;;;;;;13.21;100.00;97443.50;6063327;23;20353;-91
2022/11/04 04:32:42;;;;;;;9.13;1.83;;;;;;;13.84;100.00;97442.63;6063953;23;20010;-91
2022/11/04 04:46:46;;;;;;;10.52;1.30;;;;;;;13.19;100.00;97487.19;6089809;23;20467;-91
2022/11/04 04:49:14;;;;;;;7.65;1.30;;;;;;;12.24;100.00;97487.28;6089248;23;20034;-92
2022/11/04 04:51:49;;;;;;;10.95;1.73;;;;;;;12.84;100.00;97499.06;6063810;23;20085;-91
2022/11/04 04:54:20;;;;;;;8.88;1.70;;;;;;;12.45;100.00;97496.09;6089972;23;20042;-92
2022/11/04 04:56:54;;;;;;;12.52;1.75;;;;;;;12.44;100.00;97504.88;6062886;23;20121;-93
2022/11/04 04:59:20;;;;;;;8.15;1.50;;;;;;;12.25;100.00;97501.22;6062774;23;20007;-92
2022/11/04 05:01:53;;;;;;;7.30;1.45;;;;;;;12.69;100.00;97510.94;6062913;23;20021;-93
2022/11/04 05:04:24;;;;;;;8.20;1.40;;;;;;;12.49;100.00;97504.69;6041494;23;20034;-91
2022/11/04 05:06:53;;;;;;;8.32;1.77;;;;;;;13.27;100.00;97502.59;6060875;23;20010;-92
2022/11/04 05:09:20;;;;;;;7.43;1.60;;;;;;;13.19;100.00;97515.16;6060101;23;20018;-90
2022/11/04 05:11:45;;;;;;;8.85;1.70;;;;;;;14.35;100.00;97516.47;6059170;23;20019;-90
2022/11/04 05:14:30;;;;;;;22.20;2.67;;;;;;;12.64;100.00;97537.28;6035395;23;20022;-91
2022/11/04 05:16:55;;;;;;;17.17;2.10;;;;;;;12.96;100.00;97549.16;6060665;23;20429;-92
2022/11/04 05:19:23;;;;;;;10.60;1.92;;;;;;;12.72;100.00;97555.28;6059238;23;20011;-92
2022/11/04 05:21:58;;;;;;;10.68;2.20;;;;;;;12.17;100.00;97563.38;6059943;23;20010;-91
2022/11/04 05:24:24;;;;;;;15.68;7.95;;;;;;;12.36;100.00;97561.81;6059408;23;20019;-92
2022/11/04 05:27:04;;;;;;;29.30;13.68;;;;;;;12.46;100.00;97570.19;6059916;23;20021;-91
2022/11/04 05:29:30;;;;;;;25.38;14.00;;;;;;;12.11;100.00;97575.75;6049862;23;20007;-91
2022/11/04 05:31:56;;;;;;;19.40;8.07;;;;;;;12.35;100.00;97583.63;6035338;23;20082;-91
2022/11/04 05:34:25;;;;;;;14.30;7.30;;;;;;;12.53;100.00;97579.50;6033734;23;20025;-92
2022/11/04 05:36:53;;;;;;;10.93;3.22;;;;;;;12.68;100.00;97583.34;6032519;23;20014;-92
2022/11/04 05:39:18;;;;;;;11.38;3.15;;;;;;;12.85;100.00;97587.13;6057357;23;20011;-91
2022/11/04 05:41:44;;;;;;;8.57;2.42;;;;;;;12.95;100.00;97584.06;6033429;23;20598;-91
2022/11/04 05:44:09;;;;;;;10.27;2.58;;;;;;;13.24;100.00;97592.59;6059578;23;20018;-91
2022/11/04 05:46:35;;;;;;;11.07;1.80;;;;;;;12.73;100.00;97599.72;6059004;23;20011;-92
2022/11/04 05:49:07;;;;;;;7.43;2.15;;;;;;;13.38;100.00;97592.09;6033044;23;20440;-91
2022/11/04 05:51:33;;;;;;;8.80;1.30;;;;;;;13.76;100.00;97608.03;6032093;23;20042;-93
2022/11/04 05:53:59;;;;;;;10.68;1.67;;;;;;;13.42;100.00;97609.38;6059067;23;20003;-91
2022/11/04 05:56:25;;;;;;;7.40;1.30;;;;;;;14.18;100.00;97603.69;6036364;23;20010;-91
2022/11/04 05:58:54;;;;;;;7.95;1.35;;;;;;;13.86;100.00;97613.75;6034308;23;20042;-91
2022/11/04 06:01:43;;;;;;;7.78;1.40;;;;;;;13.96;100.00;97611.63;6061898;23;20010;-91
2022/11/04 06:04:17;;;;;;;8.27;1.17;;;;;;;13.92;100.00;97623.16;6074141;23;20523;-92
2022/11/04 06:06:43;;;;;;;7.07;1.25;;;;;;;13.53;100.00;97608.97;6087424;23;20613;-92
2022/11/04 06:09:15;;;;;;;7.30;1.30;;;;;;;13.42;100.00;97616.41;6086491;23;20018;-92
2022/11/04 06:11:44;;;;;;;7.05;1.50;;;;;;;14.27;100.00;97598.06;6087549;23;20491;-91
2022/11/04 06:14:23;;;;;;;6.88;1.15;;;;;;;13.71;100.00;97619.63;6089683;23;20022;-92
2022/11/04 06:16:49;;;;;;;8.95;1.30;;;;;;;14.24;100.00;97623.59;6086390;23;20058;-91
2022/11/04 06:19:14;;;;;;;10.70;1.48;;;;;;;13.75;100.00;97626.44;6089576;23;20440;-91
2022/11/04 06:21:53;;;;;;;14.48;1.73;;;;;;;13.52;100.00;97632.59;6089894;23;20437;-91
2022/11/04 06:24:18;;;;;;;5.82;0.95;;;;;;;13.04;100.00;97631.75;6088022;23;20066;-92
2022/11/04 06:26:44;;;;;;;9.65;1.38;;;;;;;12.65;100.00;97648.84;6089045;23;20009;-91
2022/11/04 06:29:10;;;;;;;7.18;1.17;;;;;;;12.58;100.00;97649.97;6083233;23;20022;-93
2022/11/04 06:31:37;;;;;;;7.38;1.50;;;;;;;12.82;100.00;97656.09;6087111;23;20037;-92
2022/11/04 06:34:03;;;;;;;8.15;1.27;;;;;;;12.66;100.00;97662.78;6085891;23;20020;-92
2022/11/04 06:36:35;;;;;;;6.22;1.13;;;;;;;12.43;100.00;97667.06;6087909;23;20105;-92
2022/11/04 06:39:09;;;;;;;7.45;1.13;;;;;;;12.70;100.00;97670.47;6088946;23;20017;-91
2022/11/04 06:41:35;;;;;;;7.25;1.10;;;;;;;12.84;100.00;97672.59;6085858;23;20069;-92
2022/11/04 06:44:25;;;;;;;8.20;1.13;;;;;;;12.50;100.00;97675.53;6087188;23;20089;-94
2022/11/04 06:50:15;;;;;;;6.90;1.40;;;;;;;11.80;100.00;97701.25;6088975;23;20762;-92
2022/11/04 06:52:50;;;;;;;5.85;1.10;;;;;;;11.89;100.00;97703.59;6088985;23;20006;-92
2022/11/04 06:55:15;;;;;;;5.10;1.10;;;;;;;12.32;100.00;97709.25;6087769;23;20006;-91
2022/11/04 06:57:43;;;;;;;6.43;1.17;;;;;;;11.94;100.00;97708.69;6085559;23;20105;-91
2022/11/04 07:00:12;;;;;;;7.32;1.00;;;;;;;12.92;100.00;97715.03;6087738;23;20792;-92
2022/11/04 07:03:00;;;;;;;5.57;1.00;;;;;;;11.74;100.00;97722.34;6087293;23;20288;-92
2022/11/04 07:05:34;;;;;;;5.55;0.90;;;;;;;11.57;100.00;97726.31;6114904;23;20030;-92
2022/11/04 07:07:59;;;;;;;7.22;1.00;;;;;;;11.55;100.00;97733.38;6089365;23;20336;-92
2022/11/04 07:10:25;;;;;;;7.47;1.25;;;;;;;11.81;100.00;97733.47;6117413;23;20010;-92
2022/11/04 07:12:53;;;;;;;5.00;1.15;;;;;;;13.48;100.00;97710.44;6118338;23;20024;-92
2022/11/04 07:15:20;;;;;;;5.47;0.85;;;;;;;11.90;100.00;97726.22;6091489;23;20010;-92
2022/11/04 07:17:45;;;;;;;6.03;1.25;;;;;;;11.81;100.00;97723.88;6090040;23;20041;-92
2022/11/04 07:20:13;;;;;;;9.13;1.10;;;;;;;12.07;100.00;97717.88;6116165;23;20117;-92
2022/11/04 07:22:41;;;;;;;4.85;1.35;;;;;;;11.86;100.00;97721.97;6114703;23;20073;-93
2022/11/04 07:25:09;;;;;;;7.22;1.02;;;;;;;12.37;100.00;97730.88;6113750;23;20040;-92
2022/11/04 07:27:35;;;;;;;5.57;1.08;;;;;;;11.84;100.00;97743.81;6090130;23;19997;-95
2022/11/04 07:30:03;;;;;;;8.13;1.33;;;;;;;11.34;100.00;97747.03;6090154;23;20014;-92
2022/11/04 07:32:38;;;;;;;7.10;1.17;;;;;;;11.68;100.00;97743.44;6088438;23;20028;-94
2022/11/04 07:35:04;;;;;;;8.23;1.48;;;;;;;12.32;100.00;97752.81;6087700;23;20049;-91
2022/11/04 07:37:29;;;;;;;8.07;1.55;;;;;;;12.09;100.00;97747.44;6088420;23;20020;-92
2022/11/04 07:40:01;;;;;;;8.88;1.33;;;;;;;12.37;100.00;97748.28;6112370;23;20096;-91
2022/11/04 07:42:27;;;;;;;7.90;1.20;;;;;;;12.24;100.00;97753.06;6111145;23;20018;-91
2022/11/04 07:44:58;;;;;;;8.25;1.20;;;;;;;13.01;100.00;97752.25;6088742;23;20457;-93
2022/11/04 07:47:33;;;;;;;4.72;1.10;;;;;;;11.98;100.00;97764.34;6088304;23;20014;-92
2022/11/04 07:50:04;;;;;;;10.30;1.30;;;;;;;12.01;100.00;97767.72;6116359;23;20024;-93
2022/11/04 07:52:32;;;;;;;9.27;1.40;;;;;;;11.91;100.00;97767.13;6116301;23;20008;-92
2022/11/04 07:55:08;;;;;;;9.85;1.08;;;;;;;12.56;100.00;97770.31;6090473;23;20018;-92
2022/11/04 07:57:34;;;;;;;5.90;1.20;;;;;;;11.97;100.00;97766.09;6087353;23;20014;-93
2022/11/04 08:00:00;;;;;;;8.95;1.00;;;;;;;12.81;100.00;97766.88;6090216;23;20033;-91
2022/11/04 08:02:27;;;;;;;7.30;1.20;;;;;;;12.39;100.00;97773.50;6116104;23;20017;-92
2022/11/04 08:04:55;;;;;;;8.35;1.60;;;;;;;11.39;100.00;97774.72;6090258;23;20029;-92
2022/11/04 08:07:23;;;;;;;6.90;1.40;;;;;;;13.05;100.00;97766.94;6092022;23;20060;-93
2022/11/04 08:09:51;;;;;;;6.93;1.63;;;;;;;12.80;100.00;97780.88;6090715;23;20026;-92
2022/11/04 08:12:22;;;;;;;7.72;1.40;;;;;;;13.03;100.00;97776.63;6092720;23;20021;-91
2022/11/04 08:14:50;;;;;;;7.25;1.58;;;;;;;12.54;100.00;97789.59;6091064;23;20025;-92
2022/11/04 08:17:19;;;;;;;9.73;1.77;;;;;;;13.00;100.00;97774.97;6118436;23;20021;-93
2022/11/04 08:19:55;;;;;;;4.82;0.70;;;;;;;11.47;100.00;97782.34;6093546;23;20025;-93
2022/11/04 08:22:20;;;;;;;6.53;1.05;;;;;;;12.24;100.00;97784.44;6093120;23;20463;-92
2022/11/04 08:24:48;;;;;;;8.20;1.10;;;;;;;12.00;100.00;97791.28;6119340;23;20010;-93
2022/11/04 08:27:14;;;;;;;6.47;1.02;;;;;;;12.18;100.00;97801.19;6094524;23;20496;-93
2022/11/04 08:29:39;;;;;;;7.20;1.02;;;;;;;12.70;100.00;97808.25;6121800;23;20080;-93
2022/11/04 08:32:06;;;;;;;6.90;1.00;;;;;;;13.47;100.00;97797.78;6094642;23;20014;-93
2022/11/04 08:34:35;;;;;;;5.43;1.13;;;;;;;13.12;100.00;97810.31;6121284;23;20052;-91
2022/11/04 08:37:03;;;;;;;9.23;1.02;;;;;;;13.12;100.00;97805.97;6094383;23;20152;-93
2022/11/04 08:39:45;;;;;;;6.93;0.88;;;;;;;12.84;100.00;97820.88;6120455;23;20012;-93
2022/11/04 08:42:14;;;;;;;9.17;0.90;;;;;;;13.51;100.00;97816.88;6119486;23;20016;-93
2022/11/04 08:44:39;;;;;;;4.75;0.77;;;;;;;13.05;100.00;97816.69;6093594;23;20236;-92
2022/11/04 08:47:05;;;;;;;3.25;0.77;;;;;;;12.77;100.00;97820.22;6094528;23;20033;-92
2022/11/04 08:49:31;;;;;;;5.15;0.82;;;;;;;13.66;100.00;97808.44;6093646;23;20052;-93
2022/11/04 08:52:08;;;;;;;7.00;1.27;;;;;;;13.07;100.00;97822.72;6094427;23;20032;-93
2022/11/04 08:54:34;;;;;;;6.30;1.02;;;;;;;13.21;100.00;97817.88;6093490;23;20026;-93
2022/11/04 08:57:01;;;;;;;7.45;1.25;;;;;;;12.21;100.00;97827.22;6093333;23;20032;-93
2022/11/04 08:59:32;;;;;;;7.82;0.98;;;;;;;12.22;100.00;97823.72;6118991;23;20020;-91
2022/11/04 09:02:04;;;;;;;5.18;0.93;;;;;;;12.56;100.00;97827.03;6117442;23;20420;-92
2022/11/04 09:04:29;;;;;;;10.90;1.48;;;;;;;12.81;100.00;97821.84;6119717;23;20029;-93
2022/11/04 09:06:56;;;;;;;4.30;0.77;;;;;;;12.78;100.00;97819.31;6093568;23;20014;-94
2022/11/04 09:09:24;;;;;;;8.15;1.13;;;;;;;12.63;100.00;97829.38;6092689;23;20014;-91
2022/11/04 09:11:55;;;;;;;7.47;1.25;;;;;;;12.89;100.00;97825.06;6093437;23;20014;-93
2022/11/04 09:14:23;;;;;;;8.40;0.90;;;;;;;13.21;100.00;97833.56;6091155;23;20025;-92
2022/11/04 09:16:54;;;;;;;6.22;1.10;;;;;;;12.95;100.00;97840.53;6093402;23;20049;-92
2022/11/04 09:19:24;;;;;;;6.05;0.90;;;;;;;12.96;100.00;97842.25;6093633;23;20143;-93
2022/11/04 09:21:49;;;;;;;5.95;1.08;;;;;;;13.11;100.00;97840.03;6093603;23;20024;-92
2022/11/04 09:25:14;;;;;;;5.13;0.70;;;;;;;13.83;100.00;97836.63;6118795;23;20009;-92
2022/11/04 09:27:44;;;;;;;6.18;1.38;;;;;;;13.51;100.00;97843.91;6092040;23;20018;-92
2022/11/04 09:30:36;;;;;;;5.85;1.25;;;;;;;14.29;100.00;97828.78;6092563;23;20025;-92
2022/11/04 09:33:04;;;;;;;8.18;1.20;;;;;;;14.80;100.00;97842.56;6080935;23;20017;-93
2022/11/04 09:35:32;;;;;;;9.13;1.67;;;;;;;14.43;100.00;97838.75;6118835;23;20013;-92
2022/11/04 09:38:36;;;;;;;8.57;1.40;;;;;;;14.55;100.00;97846.13;6091588;23;20026;-92
2022/11/04 09:44:31;;;;;;;7.30;1.20;;;;;;;15.28;100.00;97837.94;6116967;23;20045;-92
2022/11/04 09:47:03;;;;;;;7.78;1.30;;;;;;;14.60;100.00;97846.81;6091973;23;20014;-92
2022/11/04 09:49:35;;;;;;;8.45;1.40;;;;;;;14.98;100.00;97849.66;6089227;23;20029;-92
2022/11/04 09:52:08;;;;;;;7.63;1.45;;;;;;;14.78;100.00;97849.63;6116255;23;20006;-90
2022/11/04 09:54:47;;;;;;;7.00;0.80;;;;;;;15.56;100.00;97848.13;6087754;23;20006;-92
2022/11/04 09:57:24;;;;;;;8.13;1.30;;;;;;;15.08;100.00;97851.91;6115002;23;20021;-92
2022/11/04 09:59:56;;;;;;;4.95;1.10;;;;;;;15.17;100.00;97846.25;6086187;23;20013;-92
2022/11/04 10:02:59;;;;;;;6.47;1.17;;;;;;;15.16;100.00;97860.34;6086783;23;20101;-92
2022/11/04 10:06:16;;;;;;;4.25;0.85;;;;;;;15.85;100.00;97862.63;6083802;23;20033;-93
2022/11/04 10:12:12;;;;;;;7.47;1.02;;;;;;;15.18;100.00;97884.75;5965697;24;20108;-91
2022/11/04 10:14:50;;;;;;;5.15;1.25;;;;;;;16.02;100.00;97889.94;5944955;24;20012;-90
2022/11/04 10:18:15;;;;;;;5.63;0.93;;;;;;;15.29;100.00;97893.03;5941254;24;20793;-92
2022/11/04 10:20:59;;;;;;;5.15;1.00;;;;;;;15.15;100.00;97896.22;5911299;24;20017;-91
2022/11/04 10:24:34;;;;;;;5.72;1.10;;;;;;;15.38;100.00;97898.81;5911777;24;20021;-91
2022/11/04 10:27:14;;;;;;;8.10;1.13;;;;;;;16.10;100.00;97900.09;5900417;24;20696;-92
2022/11/04 10:29:44;;;;;;;3.83;0.80;;;;;;;16.65;100.00;97904.59;5909175;24;20028;-93
2022/11/04 10:32:20;;;;;;;4.88;0.90;;;;;;;15.07;100.00;97924.56;5888016;24;20062;-91
2022/11/04 10:34:48;;;;;;;5.75;1.10;;;;;;;14.94;100.00;97928.63;5910141;24;20189;-90
2022/11/04 10:37:13;;;;;;;6.28;0.80;;;;;;;15.13;100.00;97923.50;5889535;24;20028;-91
2022/11/04 10:43:56;;;;;;;3.72;0.80;;;;;;;14.85;100.00;97924.63;5913639;24;20074;-92
2022/11/04 10:46:59;;;;;;;6.13;0.80;;;;;;;16.34;100.00;97924.44;6024350;23;20299;-92
2022/11/04 10:50:01;;;;;;;8.80;1.10;;;;;;;15.28;100.00;97933.38;6025577;23;20007;-92
2022/11/04 10:52:27;;;;;;;5.32;0.82;;;;;;;15.09;100.00;97943.75;6003241;23;20098;-92
2022/11/04 10:54:53;;;;;;;5.28;0.90;;;;;;;14.98;100.00;97943.34;6063099;23;20045;-89
2022/11/04 10:58:13;;;;;;;5.45;0.90;;;;;;;15.44;100.00;97949.34;6062296;23;20360;-92
2022/11/04 11:01:15;;;;;;;6.78;1.00;;;;;;;15.32;100.00;97962.97;6087632;23;20006;-92
2022/11/04 11:03:41;;;;;;;6.13;0.85;;;;;;;15.98;100.00;97954.13;6085843;23;20011;-92
2022/11/04 11:06:19;;;;;;;4.47;1.00;;;;;;;16.22;100.00;97967.94;6062828;23;20041;-92
2022/11/04 11:08:45;;;;;;;3.17;0.80;;;;;;;15.47;100.00;97974.63;6087791;23;20002;-93
2022/11/04 11:11:13;;;;;;;5.78;1.00;;;;;;;15.25;100.00;97972.88;6087687;23;20114;-92
2022/11/04 11:13:45;;;;;;;6.65;1.20;;;;;;;15.90;100.00;97945.69;6085824;23;20014;-93
2022/11/04 11:16:26;;;;;;;4.83;0.90;;;;;;;16.49;100.00;97957.06;6083640;23;20018;-92
2022/11/04 11:19:13;;;;;;;4.13;1.00;;;;;;;16.64;100.00;97963.41;6084865;23;20019;-93
2022/11/04 11:22:00;;;;;;;6.60;1.30;;;;;;;16.88;100.00;97962.31;6087106;23;20113;-90
2022/11/04 11:24:29;;;;;;;5.22;1.20;;;;;;;17.04;100.00;97970.31;6088322;23;20013;-90
2022/11/04 11:27:10;;;;;;;6.65;1.50;;;;;;;16.51;100.00;97965.78;6081708;23;20014;-90
2022/11/04 11:43:57;;;;;;;8.10;1.65;;;;;;;15.23;100.00;97979.97;5911040;24;20024;-91
2022/11/04 11:47:00;;;;;;;8.48;1.50;;;;;;;15.32;100.00;97976.97;5912977;24;20024;-91
2022/11/04 11:49:35;;;;;;;9.48;1.65;;;;;;;14.87;100.00;97972.63;5914088;24;20032;-91
2022/11/04 11:52:16;;;;;;;5.38;1.42;;;;;;;15.71;100.00;97985.88;5912941;24;20017;-91
2022/11/04 11:54:45;;;;;;;7.78;1.20;;;;;;;15.60;100.00;97970.59;5912116;24;20025;-92
2022/11/04 11:57:55;;;;;;;5.50;1.20;;;;;;;15.43;100.00;97987.03;5912107;24;20047;-91
2022/11/04 12:00:27;;;;;;;5.93;1.27;;;;;;;14.47;100.00;97967.13;5911489;24;20024;-90
2022/11/04 12:02:59;;;;;;;6.25;1.55;;;;;;;15.05;100.00;97964.97;5913269;24;20059;-90
2022/11/04 12:24:46;;;;;;;;;;;;;;;;;;;;;
2022/11/04 12:27:46;;;;;;;10.27;1.90;;;;;;;15.07;100.00;98015.63;6027693;23;20106;-91
2022/11/04 12:30:18;;;;;;;5.97;1.40;;;;;;;15.43;100.00;98015.09;6026173;23;20465;-91
2022/11/04 12:33:21;;;;;;;6.78;1.60;;;;;;;15.24;100.00;98009.72;6044111;23;20112;-92
2022/11/04 12:36:36;;;;;;;6.63;1.58;;;;;;;16.03;100.00;98010.84;6091224;23;20010;-91
2022/11/04 13:00:37;;;;;;;7.50;1.58;;;;;;;15.37;100.00;98021.44;6024982;23;20066;-89
2022/11/04 13:07:21;;;;;;;5.72;1.40;;;;;;;16.95;100.00;98017.31;6026216;23;20030;-92
2022/11/04 13:09:55;;;;;;;6.03;1.35;;;;;;;17.82;100.00;98008.72;6114559;23;20030;-92
2022/11/04 13:12:37;;;;;;;7.30;1.60;;;;;;;16.33;100.00;98005.16;6089757;23;20385;-93
2022/11/04 13:15:24;;;;;;;6.30;1.60;;;;;;;16.42;100.00;98008.28;6115110;23;20719;-92
2022/11/04 13:17:56;;;;;;;8.60;1.67;;;;;;;17.44;100.00;98009.72;6115102;23;20092;-92
2022/11/04 13:20:51;;;;;;;6.93;1.70;;;;;;;16.61;100.00;98011.81;6113326;23;20100;-93
2022/11/04 13:23:26;;;;;;;8.40;2.08;;;;;;;15.63;100.00;98004.63;6087432;23;20022;-91
2022/11/04 13:25:53;;;;;;;10.18;2.50;;;;;;;16.23;100.00;98005.63;6119900;23;20073;-92
2022/11/04 13:28:29;;;;;;;8.98;1.85;;;;;;;16.34;100.00;97995.50;6120376;23;20010;-94
2022/11/04 13:31:08;;;;;;;6.80;1.40;;;;;;;16.69;100.00;97982.50;6115106;23;20400;-94
2022/11/04 13:33:46;;;;;;;7.88;1.55;;;;;;;15.56;100.00;97995.28;6091657;23;20018;-94
2022/11/04 13:36:18;;;;;;;8.25;1.70;;;;;;;15.77;100.00;97988.25;6091005;23;20048;-93
2022/11/04 13:38:50;;;;;;;5.53;1.35;;;;;;;16.30;100.00;97981.59;6114793;23;20420;-93
2022/11/04 13:41:39;;;;;;;6.10;1.60;;;;;;;16.21;100.00;97980.25;6112460;23;20025;-92
2022/11/04 13:44:23;;;;;;;5.97;1.38;;;;;;;16.10;100.00;97992.16;6087845;23;20013;-93